KRRL/RRL METAR and TAF weather

Enter ICAO airport designator
Station Type Date Time Source
KRRL METAR 2020/07/11 04:55 UTC NOAA

KRRL 110455Z AUTO 00000KT 10SM CLR 20/17 A2993 RMK AO2 T02010170 TSNO


Station Type Date Time Source
KRRL Decoded METAR 2020/07/11 04:55 UTC NOAA

Merrill, Merrill Municipal Airport, WI, United States (KRRL) 45-11N 089-42W
Jul 11, 2020 - 12:55 AM EDT / 2020.07.11 0455 UTC
Wind: Calm:0
Visibility: 10 mile(s):0
Sky conditions: clear
Temperature: 68.2 F (20.1 C)
Dew Point: 62.6 F (17.0 C)
Relative Humidity: 82%
Pressure (altimeter): 29.93 in. Hg (1013 hPa)
ob: KRRL 110455Z AUTO 00000KT 10SM CLR 20/17 A2993 RMK AO2 T02010170 TSNO
cycle: 5

Station Type Date Time Source
KRRL TAF UTC NOAA

Error!

Example: see airport list